Etusivu
METAR-TAF:

METAR-TAF

Lentoasemat :

Lytton, Brittiläinen Kolumbia, Kanada

Leveyspiiri: 50-14N, Pituuspiiri: 121-35W, korkeus merenpinnasta: 229 m

Tämänhetkinen sää

Tämä raportti tehtiin 28 minuuttia sitten, kello 12.11 UTC
Tuuli 8 kn pohjoisesta/koillisesta
Lämpötila 3°C
Kosteus 100%
Ilmanpaine 1012 hPa
Näkyvyys: 14.5 km
Hajonneita pilviä 2600 ft:n korkeudessa
Pilvistä 8500 ft:n korkeudessa

METAR: CWLY 151211Z AUTO 02008KT 9SM BKN026 OVC085 03/03 A2987 RMK SLP124

Aika: 04:39 (12:39 UTC)


TAF: puuttuu

Säähavainnot ja -ennusteet yli 4000 lentoasemalta (METAR- ja TAF-raportit).

Käytössä olevat sääasemat on merkitty karttaan keltaisilla ja punaisilla pisteillä.

Aseta hiiri pisteen päälle nähdäksesi sääaseman nimen.

Klikkaa sitten nähdäksesi säähavainnot ja -ennusteet.

Kartan vaihtaminen: klikkaa mustalla rastilla varustettuja vihreitä pisteitä, niin voit zoomata sisään; viivalla varustettua vihreää pistettä, niin voit zoomata ulos tai vihreitä nuolia, niin pääset viereisille kartoille.


METAR-TAF: